Time;durP1;ratioP1;P1;durP2;ratioP2;P2;SDS_P1;SDS_P2;PMS_P1;PMS_P2;Temp;Humidity;BMP_temperature;BMP_pressure;BME280_temperature;BME280_humidity;BME280_pressure;Samples;Min_cycle;Max_cycle;Signal;HPM_P1;HPM_P2
2023/09/21 00:01:23;;;;;;;;;;;;;;;15.33;100.00;95655.22;5106257;28;19956;-71
2023/09/21 00:03:49;;;;;;;;;;;;;;;15.34;100.00;95652.31;5106645;28;20111;-72
2023/09/21 00:06:17;;;;;;;;;;;;;;;15.35;100.00;95643.34;5106568;28;19961;-72
2023/09/21 00:08:44;;;;;;;;;;;;;;;15.35;100.00;95643.34;5106104;28;19957;-72
2023/09/21 00:11:10;;;;;;;;;;;;;;;15.35;100.00;95648.63;5105105;28;20250;-71
2023/09/21 00:13:39;;;;;;;;;;;;;;;15.37;100.00;95640.41;5106098;28;20020;-76
2023/09/21 00:16:08;;;;;;;;;;;;;;;15.36;100.00;95633.56;5087932;28;19957;-73
2023/09/21 00:18:34;;;;;;;;;;;;;;;15.37;100.00;95633.31;5105554;28;20250;-72
2023/09/21 00:21:02;;;;;;;;;;;;;;;15.37;100.00;95630.66;5106147;28;19962;-73
2023/09/21 00:23:30;;;;;;;;;;;;;;;15.37;100.00;95633.31;5105959;28;19964;-74
2023/09/21 00:25:58;;;;;;;;;;;;;;;15.36;100.00;95623.78;5105914;28;19938;-72
2023/09/21 00:28:25;;;;;;;;;;;;;;;15.37;100.00;95628.03;5106226;28;19991;-73
2023/09/21 00:30:55;;;;;;;;;;;;;;;15.36;100.00;95615.06;5105862;28;19990;-73
2023/09/21 00:33:20;;;;;;;;;;;;;;;15.35;100.00;95618.75;5105549;28;19965;-70
2023/09/21 00:35:46;;;;;;;;;;;;;;;15.33;100.00;95613.75;5105540;28;19953;-70
2023/09/21 00:38:16;;;;;;;;;;;;;;;15.33;100.00;95620.88;5105782;28;19953;-70
2023/09/21 00:40:42;;;;;;;;;;;;;;;15.31;100.00;95609.81;5087239;28;20142;-70
2023/09/21 00:43:09;;;;;;;;;;;;;;;15.30;100.00;95605.56;5070849;28;20244;-70
2023/09/21 00:45:36;;;;;;;;;;;;;;;15.29;100.00;95604.00;5105653;28;19977;-70
2023/09/21 00:48:03;;;;;;;;;;;;;;;15.28;100.00;95605.84;5105087;28;19954;-70
2023/09/21 00:50:30;;;;;;;;;;;;;;;15.29;100.00;95598.72;5105551;28;19957;-72
2023/09/21 00:52:56;;;;;;;;;;;;;;;15.29;100.00;95607.44;5087229;28;20242;-75
2023/09/21 00:55:30;;;;;;;;;;;;;;;15.29;100.00;95598.72;5105315;28;19957;-74
2023/09/21 00:58:02;;;;;;;;;;;;;;;15.29;100.00;95609.28;5105422;28;20253;-74
2023/09/21 01:00:30;;;;;;;;;;;;;;;15.27;100.00;95604.28;5105414;28;19956;-75
2023/09/21 01:03:07;;;;;;;;;;;;;;;15.27;100.00;95600.84;5105086;28;19950;-75
2023/09/21 01:05:34;;;;;;;;;;;;;;;15.26;100.00;95594.75;5105341;28;19958;-74
2023/09/21 01:08:04;;;;;;;;;;;;;;;15.28;100.00;95599.78;5105135;28;19950;-72
2023/09/21 01:10:30;;;;;;;;;;;;;;;15.27;100.00;95603.47;5105350;28;20210;-70
2023/09/21 01:12:56;;;;;;;;;;;;;;;15.27;100.00;95599.00;5087333;28;19960;-71
2023/09/21 01:15:22;;;;;;;;;;;;;;;15.27;100.00;95592.91;5087227;28;20110;-70
2023/09/21 01:17:48;;;;;;;;;;;;;;;15.27;100.00;95598.19;5087060;28;19952;-70
2023/09/21 01:20:19;;;;;;;;;;;;;;;15.28;100.00;95589.19;5087273;28;20121;-70
2023/09/21 01:22:48;;;;;;;;;;;;;;;15.28;100.00;95590.00;5105040;28;20212;-70
2023/09/21 01:25:15;;;;;;;;;;;;;;;15.31;100.00;95586.81;5104705;28;19961;-73
2023/09/21 01:27:41;;;;;;;;;;;;;;;15.33;100.00;95582.06;5104991;28;20254;-73
2023/09/21 01:30:12;;;;;;;;;;;;;;;15.33;100.00;95581.25;5104722;28;19957;-77
2023/09/21 01:32:39;;;;;;;;;;;;;;;15.34;100.00;95572.28;5104867;28;20142;-76
2023/09/21 01:35:06;;;;;;;;;;;;;;;15.33;100.00;95573.31;5104822;28;19967;-75
2023/09/21 01:37:32;;;;;;;;;;;;;;;15.33;100.00;95575.97;5104279;28;19952;-76
2023/09/21 01:39:59;;;;;;;;;;;;;;;15.33;100.00;95579.44;5104758;28;20159;-75
2023/09/21 01:42:25;;;;;;;;;;;;;;;15.34;100.00;95573.06;5104821;28;20097;-75
2023/09/21 01:44:51;;;;;;;;;;;;;;;15.35;100.00;95568.56;5104977;28;19958;-70
2023/09/21 01:47:18;;;;;;;;;;;;;;;15.35;100.00;95558.00;5104646;28;19963;-70
2023/09/21 01:49:44;;;;;;;;;;;;;;;15.36;100.00;95562.25;5104683;28;20127;-70
2023/09/21 01:52:10;;;;;;;;;;;;;;;15.34;100.00;95554.56;5086421;28;20067;-70
2023/09/21 01:54:36;;;;;;;;;;;;;;;15.35;100.00;95556.16;5104294;28;19989;-70
2023/09/21 01:57:07;;;;;;;;;;;;;;;15.36;100.00;95546.38;5104546;28;20024;-70
2023/09/21 01:59:33;;;;;;;;;;;;;;;15.35;100.00;95542.97;5104673;28;20261;-70
2023/09/21 02:01:59;;;;;;;;;;;;;;;15.35;100.00;95535.03;5104391;28;19954;-73
2023/09/21 02:04:25;;;;;;;;;;;;;;;15.35;100.00;95523.66;5086394;28;19954;-78
2023/09/21 02:06:51;;;;;;;;;;;;;;;15.34;100.00;95524.72;5103950;28;19945;-71
2023/09/21 02:09:17;;;;;;;;;;;;;;;15.33;100.00;95521.31;5104448;28;19951;-71
2023/09/21 02:11:44;;;;;;;;;;;;;;;15.33;100.00;95513.38;5086652;28;20066;-72
2023/09/21 02:14:11;;;;;;;;;;;;;;;15.33;100.00;95513.38;5086597;28;20139;-72
2023/09/21 02:16:38;;;;;;;;;;;;;;;15.35;100.00;95519.19;5104468;28;19952;-71
2023/09/21 02:19:03;;;;;;;;;;;;;;;15.35;100.00;95503.34;5086149;28;19958;-71
2023/09/21 02:21:29;;;;;;;;;;;;;;;15.35;100.00;95502.53;5104099;28;20004;-72
2023/09/21 02:23:55;;;;;;;;;;;;;;;15.34;100.00;95503.59;5086310;28;20030;-73
2023/09/21 02:26:21;;;;;;;;;;;;;;;15.34;100.00;95496.47;5104363;28;19962;-72
2023/09/21 02:28:48;;;;;;;;;;;;;;;15.36;100.00;95496.19;5086225;28;19948;-73
2023/09/21 02:31:14;;;;;;;;;;;;;;;15.37;100.00;95492.47;5104184;28;19987;-72
2023/09/21 02:33:42;;;;;;;;;;;;;;;15.38;100.00;95496.72;5105291;28;19957;-72
2023/09/21 02:36:12;;;;;;;;;;;;;;;15.39;100.00;95490.34;5107534;28;20226;-72
2023/09/21 02:38:38;;;;;;;;;;;;;;;15.39;100.00;95487.72;5107584;28;19940;-72
2023/09/21 02:41:04;;;;;;;;;;;;;;;15.38;100.00;95491.44;5108370;28;19962;-78
2023/09/21 02:43:30;;;;;;;;;;;;;;;15.37;100.00;95492.47;5107678;28;19949;-71
2023/09/21 02:45:56;;;;;;;;;;;;;;;15.36;100.00;95488.28;5107961;28;19970;-72
2023/09/21 02:48:22;;;;;;;;;;;;;;;15.36;100.00;95483.78;5107627;28;20127;-72
2023/09/21 02:50:48;;;;;;;;;;;;;;;15.35;100.00;95490.13;5107928;28;19958;-72
2023/09/21 02:53:14;;;;;;;;;;;;;;;15.36;100.00;95483.00;5107802;28;19963;-71
2023/09/21 02:55:41;;;;;;;;;;;;;;;15.35;100.00;95470.81;5107597;28;19959;-71
2023/09/21 02:58:10;;;;;;;;;;;;;;;15.31;100.00;95473.25;5107690;28;19962;-72
2023/09/21 03:00:42;;;;;;;;;;;;;;;15.32;100.00;95477.44;5089430;28;19960;-76
2023/09/21 03:03:15;;;;;;;;;;;;;;;15.34;100.00;95477.19;5107700;28;20009;-76
2023/09/21 03:05:41;;;;;;;;;;;;;;;15.35;100.00;95462.91;5107396;28;19939;-76
2023/09/21 03:08:14;;;;;;;;;;;;;;;15.36;100.00;95467.91;5107836;28;19969;-74
2023/09/21 03:10:40;;;;;;;;;;;;;;;15.38;100.00;95471.09;5107705;28;19949;-74
2023/09/21 03:13:06;;;;;;;;;;;;;;;15.39;100.00;95475.31;5107071;28;19964;-73
2023/09/21 03:15:34;;;;;;;;;;;;;;;15.41;100.00;95482.94;5107615;28;19959;-76
2023/09/21 03:18:00;;;;;;;;;;;;;;;15.41;100.00;95477.66;5107354;28;19956;-71
2023/09/21 03:20:28;;;;;;;;;;;;;;;15.41;100.00;95478.47;5107241;28;19959;-70
2023/09/21 03:22:55;;;;;;;;;;;;;;;15.41;100.00;95473.19;5107081;28;19951;-71
2023/09/21 03:25:25;;;;;;;;;;;;;;;15.41;100.00;95477.66;5107133;28;20116;-70
2023/09/21 03:27:52;;;;;;;;;;;;;;;15.42;100.00;95489.84;5107184;28;19972;-71
2023/09/21 03:30:18;;;;;;;;;;;;;;;15.41;100.00;95481.13;5107053;28;20249;-70
2023/09/21 03:32:44;;;;;;;;;;;;;;;15.40;100.00;95468.19;5089240;28;20104;-70
2023/09/21 03:35:11;;;;;;;;;;;;;;;15.40;100.00;95468.19;5106755;28;19969;-73
2023/09/21 03:37:38;;;;;;;;;;;;;;;15.39;100.00;95470.03;5107064;28;20152;-72
2023/09/21 03:40:06;;;;;;;;;;;;;;;15.38;100.00;95463.16;5071668;28;20345;-72
2023/09/21 03:42:32;;;;;;;;;;;;;;;15.38;100.00;95463.16;5106630;28;20234;-72
2023/09/21 03:44:58;;;;;;;;;;;;;;;15.38;100.00;95463.16;5087229;28;20156;-72
2023/09/21 03:47:24;;;;;;;;;;;;;;;15.37;100.00;95464.25;5106581;28;19948;-72
2023/09/21 03:49:50;;;;;;;;;;;;;;;15.38;100.00;95459.72;5106574;28;20018;-72
2023/09/21 03:52:16;;;;;;;;;;;;;;;15.39;100.00;95469.22;5106751;28;19955;-72
2023/09/21 03:54:42;;;;;;;;;;;;;;;15.41;100.00;95461.81;5106159;28;20210;-70
2023/09/21 03:57:11;;;;;;;;;;;;;;;15.40;100.00;95449.69;5071553;28;19952;-76
2023/09/21 03:59:37;;;;;;;;;;;;;;;15.40;100.00;95453.09;5106538;28;19955;-74
2023/09/21 04:02:03;;;;;;;;;;;;;;;15.40;100.00;95447.81;5106141;28;20225;-74
2023/09/21 04:04:30;;;;;;;;;;;;;;;15.40;100.00;95445.19;5106463;28;19978;-75
2023/09/21 04:06:56;;;;;;;;;;;;;;;15.40;100.00;95441.75;5106559;28;19957;-74
2023/09/21 04:09:22;;;;;;;;;;;;;;;15.41;100.00;95453.88;5106006;28;20288;-74
2023/09/21 04:11:48;;;;;;;;;;;;;;;15.40;100.00;95439.91;5105903;28;19967;-72
2023/09/21 04:14:14;;;;;;;;;;;;;;;15.40;100.00;95439.91;5106033;28;19956;-72
2023/09/21 04:16:39;;;;;;;;;;;;;;;15.42;100.00;95439.63;5106334;28;19992;-71
2023/09/21 04:19:10;;;;;;;;;;;;;;;15.44;100.00;95440.16;5105974;28;19950;-71
2023/09/21 04:21:36;;;;;;;;;;;;;;;15.43;100.00;95438.56;5105992;28;19957;-72
2023/09/21 04:24:02;;;;;;;;;;;;;;;15.45;100.00;95435.66;5106128;28;19947;-72
2023/09/21 04:26:29;;;;;;;;;;;;;;;15.44;100.00;95434.88;5105973;28;20228;-71
2023/09/21 04:28:55;;;;;;;;;;;;;;;15.45;100.00;95430.38;5105394;28;19940;-72
2023/09/21 04:31:21;;;;;;;;;;;;;;;15.45;100.00;95441.72;5088167;28;20135;-73
2023/09/21 04:33:47;;;;;;;;;;;;;;;15.46;100.00;95437.25;5105851;28;19961;-73
2023/09/21 04:36:13;;;;;;;;;;;;;;;15.46;100.00;95437.25;5105719;28;19962;-72
2023/09/21 04:38:39;;;;;;;;;;;;;;;15.45;100.00;95436.44;5105929;28;20129;-72
2023/09/21 04:41:06;;;;;;;;;;;;;;;15.43;100.00;95434.09;5105684;28;19954;-72
2023/09/21 04:43:32;;;;;;;;;;;;;;;15.41;100.00;95436.22;5105738;28;19949;-73
2023/09/21 04:45:59;;;;;;;;;;;;;;;15.40;100.00;95429.34;5105417;28;19958;-72
2023/09/21 04:48:25;;;;;;;;;;;;;;;15.40;100.00;95424.06;5105473;28;20138;-71
2023/09/21 04:50:51;;;;;;;;;;;;;;;15.39;100.00;95411.91;5087331;28;19955;-75
2023/09/21 04:53:17;;;;;;;;;;;;;;;15.36;100.00;95415.09;5105455;28;19967;-76
2023/09/21 04:55:44;;;;;;;;;;;;;;;15.35;100.00;95421.44;5105469;28;19954;-76
2023/09/21 04:58:09;;;;;;;;;;;;;;;15.35;100.00;95410.88;5105065;28;19938;-76
2023/09/21 05:00:35;;;;;;;;;;;;;;;15.35;100.00;95407.44;5105525;28;19958;-76
2023/09/21 05:03:01;;;;;;;;;;;;;;;15.37;100.00;95407.94;5105649;28;20126;-75
2023/09/21 05:05:27;;;;;;;;;;;;;;;15.39;100.00;95411.09;5105007;28;19961;-75
2023/09/21 05:07:53;;;;;;;;;;;;;;;15.39;100.00;95411.91;5105163;28;19950;-74
2023/09/21 05:10:19;;;;;;;;;;;;;;;15.40;100.00;95405.56;5105457;28;19957;-73
2023/09/21 05:12:48;;;;;;;;;;;;;;;15.40;100.00;95405.56;5104923;28;19960;-73
2023/09/21 05:15:15;;;;;;;;;;;;;;;15.41;100.00;95406.34;5104997;28;19959;-73
2023/09/21 05:17:42;;;;;;;;;;;;;;;15.42;100.00;95410.56;5104771;28;20236;-73
2023/09/21 05:20:11;;;;;;;;;;;;;;;15.44;100.00;95408.44;5105010;28;20090;-72
2023/09/21 05:22:40;;;;;;;;;;;;;;;15.43;100.00;95402.38;5105125;28;20131;-73
2023/09/21 05:25:06;;;;;;;;;;;;;;;15.45;100.00;95401.31;5104927;28;19961;-74
2023/09/21 05:27:32;;;;;;;;;;;;;;;15.45;100.00;95403.94;5105021;28;20123;-73
2023/09/21 05:29:59;;;;;;;;;;;;;;;15.46;100.00;95402.91;5087016;28;19962;-73
2023/09/21 05:32:26;;;;;;;;;;;;;;;15.46;100.00;95398.41;5104427;28;19960;-73
2023/09/21 05:34:52;;;;;;;;;;;;;;;15.46;100.00;95387.84;5104944;28;19970;-73
2023/09/21 05:37:21;;;;;;;;;;;;;;;15.47;100.00;95391.25;5104976;28;19958;-73
2023/09/21 05:39:48;;;;;;;;;;;;;;;15.48;100.00;95398.13;5104597;28;19960;-73
2023/09/21 05:42:15;;;;;;;;;;;;;;;15.49;100.00;95389.13;5104891;28;20113;-73
2023/09/21 05:44:42;;;;;;;;;;;;;;;15.50;100.00;95383.56;5104689;28;19960;-70
2023/09/21 05:47:08;;;;;;;;;;;;;;;15.53;100.00;95377.72;5104339;28;19949;-74
2023/09/21 05:49:36;;;;;;;;;;;;;;;15.53;100.00;95383.00;5104728;28;20251;-73
2023/09/21 05:52:08;;;;;;;;;;;;;;;15.55;100.00;95390.69;5104583;28;19948;-73
2023/09/21 05:54:35;;;;;;;;;;;;;;;15.56;100.00;95393.06;5104880;28;19964;-73
2023/09/21 05:57:03;;;;;;;;;;;;;;;15.58;100.00;95387.47;5104871;28;19949;-73
2023/09/21 05:59:31;;;;;;;;;;;;;;;15.62;100.00;95391.13;5104575;28;19960;-74
2023/09/21 06:02:00;;;;;;;;;;;;;;;15.66;100.00;95384.25;5104708;28;19949;-75
2023/09/21 06:04:26;;;;;;;;;;;;;;;15.73;100.00;95390.06;5104554;28;19961;-73
2023/09/21 06:06:54;;;;;;;;;;;;;;;15.83;100.00;95395.25;5104573;28;19951;-75
2023/09/21 06:09:20;;;;;;;;;;;;;;;15.94;100.00;95390.66;5106378;28;20141;-73
2023/09/21 06:11:46;;;;;;;;;;;;;;;16.05;100.00;95380.00;5108576;28;19954;-73
2023/09/21 06:14:12;;;;;;;;;;;;;;;16.18;100.00;95382.00;5108318;28;19977;-73
2023/09/21 06:16:38;;;;;;;;;;;;;;;16.28;100.00;95383.75;5108105;28;19954;-73
2023/09/21 06:19:04;;;;;;;;;;;;;;;16.30;100.00;95381.63;5108422;28;19959;-73
2023/09/21 06:21:30;;;;;;;;;;;;;;;16.27;100.00;95387.47;5108712;28;19946;-74
2023/09/21 06:23:56;;;;;;;;;;;;;;;16.22;100.00;95378.50;5108177;28;19955;-74
2023/09/21 06:26:22;;;;;;;;;;;;;;;16.23;100.00;95398.63;5108583;28;20228;-74
2023/09/21 06:28:48;;;;;;;;;;;;;;;16.24;100.00;95397.53;5108560;28;19955;-74
2023/09/21 06:31:15;;;;;;;;;;;;;;;16.25;100.00;95395.66;5108285;28;20024;-74
2023/09/21 06:33:41;;;;;;;;;;;;;;;16.24;100.00;95397.53;5108010;28;19972;-74
2023/09/21 06:36:20;;;;;;;;;;;;;;;16.22;100.00;95399.66;5107925;28;20268;-74
2023/09/21 06:38:50;;;;;;;;;;;;;;;16.20;100.00;95388.56;5108178;28;19958;-71
2023/09/21 06:41:16;;;;;;;;;;;;;;;16.19;100.00;95402.06;5108152;28;19953;-73
2023/09/21 06:43:43;;;;;;;;;;;;;;;16.17;100.00;95394.44;5108140;28;19959;-72
2023/09/21 06:46:09;;;;;;;;;;;;;;;16.17;100.00;95399.72;5107522;28;19956;-72
2023/09/21 06:48:35;;;;;;;;;;;;;;;16.18;100.00;95388.06;5107921;28;20122;-72
2023/09/21 06:51:03;;;;;;;;;;;;;;;16.27;100.00;95387.47;5108219;28;19951;-73
2023/09/21 06:53:29;;;;;;;;;;;;;;;16.38;100.00;95384.44;5108176;28;19966;-72
2023/09/21 06:55:56;;;;;;;;;;;;;;;16.42;100.00;95376.72;5107661;28;19945;-73
2023/09/21 06:58:22;;;;;;;;;;;;;;;16.43;100.00;95381.72;5107790;28;19953;-72
2023/09/21 07:00:48;;;;;;;;;;;;;;;16.43;100.00;95373.78;5107919;28;19953;-71
2023/09/21 07:03:15;;;;;;;;;;;;;;;16.43;100.00;95373.00;5107627;28;20010;-71
2023/09/21 07:05:43;;;;;;;;;;;;;;;16.43;100.00;95387.03;5107250;28;19959;-71
2023/09/21 07:08:13;;;;;;;;;;;;;;;16.45;100.00;95384.09;5107651;28;19959;-71
2023/09/21 07:10:38;;;;;;;;;;;;;;;16.43;100.00;95381.72;5107711;28;20101;-71
2023/09/21 07:13:05;;;;;;;;;;;;;;;16.44;100.00;95385.97;5107543;28;19970;-71
2023/09/21 07:15:31;;;;;;;;;;;;;;;16.47;100.00;95381.97;5107880;28;19943;-72
2023/09/21 07:17:58;;;;;;;;;;;;;;;16.49;100.00;95377.19;5089648;28;19963;-76
2023/09/21 07:20:26;;;;;;;;;;;;;;;16.51;100.00;95377.69;5107253;28;20178;-77
2023/09/21 07:22:52;;;;;;;;;;;;;;;16.54;100.00;95365.75;5107662;28;19951;-79
2023/09/21 07:25:18;;;;;;;;;;;;;;;16.56;100.00;95358.31;5107074;28;19967;-77
2023/09/21 07:27:44;;;;;;;;;;;;;;;16.57;100.00;95355.41;5107505;28;19960;-76
2023/09/21 07:30:11;;;;;;;;;;;;;;;16.61;100.00;95351.13;5107274;28;20136;-77
2023/09/21 07:32:37;;;;;;;;;;;;;;;16.62;100.00;95351.91;5107282;28;19964;-77
2023/09/21 07:35:04;;;;;;;;;;;;;;;16.64;100.00;95360.34;5106659;28;19960;-70
2023/09/21 07:37:30;;;;;;;;;;;;;;;16.66;100.00;95357.41;5089078;28;20150;-75
2023/09/21 07:39:57;;;;;;;;;;;;;;;16.70;100.00;95353.13;5107116;28;19959;-73
2023/09/21 07:42:23;;;;;;;;;;;;;;;16.74;100.00;95343.56;5107054;28;19954;-73
2023/09/21 07:44:49;;;;;;;;;;;;;;;16.80;100.00;95331.84;5107302;28;20238;-73
2023/09/21 07:47:16;;;;;;;;;;;;;;;16.89;100.00;95338.09;5106954;28;19963;-73
2023/09/21 07:49:44;;;;;;;;;;;;;;;16.98;100.00;95335.59;5107210;28;19976;-73
2023/09/21 07:52:10;;;;;;;;;;;;;;;17.06;100.00;95326.22;5107286;28;20122;-73
2023/09/21 07:54:37;;;;;;;;;;;;;;;17.11;100.00;95326.13;5106576;28;19952;-74
2023/09/21 07:57:04;;;;;;;;;;;;;;;17.16;100.00;95324.22;5106807;28;19958;-72
2023/09/21 07:59:31;;;;;;;;;;;;;;;17.23;100.00;95310.59;5106794;28;19949;-73
2023/09/21 08:01:57;;;;;;;;;;;;;;;17.29;100.00;95314.75;5107357;28;19957;-73
2023/09/21 08:04:23;;;;;;;;;;;;;;;17.36;100.00;95309.09;5106327;28;19945;-72
2023/09/21 08:06:49;;;;;;;;;;;;;;;17.46;100.00;95308.94;5106571;28;20229;-73
2023/09/21 08:09:18;;;;;;;;;;;;;;;17.58;100.00;95301.31;5105731;28;20256;-72
2023/09/21 08:11:45;;;;;;;;;;;;;;;17.68;100.00;95303.03;5105953;28;19939;-73
2023/09/21 08:14:10;;;;;;;;;;;;;;;17.75;100.00;95305.28;5105933;28;19960;-74
2023/09/21 08:16:37;;;;;;;;;;;;;;;17.78;100.00;95302.81;5106463;28;20005;-74
2023/09/21 08:19:03;;;;;;;;;;;;;;;17.83;100.00;95310.75;5106578;28;20128;-74
2023/09/21 08:21:31;;;;;;;;;;;;;;;17.88;100.00;95315.16;5106062;28;19957;-74
2023/09/21 08:23:57;;;;;;;;;;;;;;;17.90;100.00;95310.34;5105676;28;20134;-74
2023/09/21 08:26:23;;;;;;;;;;;;;;;17.91;100.00;95314.59;5106033;28;19987;-74
2023/09/21 08:28:49;;;;;;;;;;;;;;;17.97;100.00;95316.06;5105879;28;20255;-72
2023/09/21 08:31:14;;;;;;;;;;;;;;;18.01;100.00;95318.91;5087517;28;19987;-74
2023/09/21 08:33:40;;;;;;;;;;;;;;;18.03;100.00;95320.19;5105392;28;19958;-73
2023/09/21 08:36:08;;;;;;;;;;;;;;;18.05;100.00;95330.50;5106074;28;19956;-73
2023/09/21 08:38:34;;;;;;;;;;;;;;;18.10;100.00;95329.63;5105992;28;19951;-73
2023/09/21 08:41:00;;;;;;;;;;;;;;;18.21;100.00;95337.13;5105665;28;19984;-73
2023/09/21 08:43:26;;;;;;;;;;;;;;;18.46;100.00;95327.91;5105968;28;19959;-73
2023/09/21 08:45:52;;;;;;;;;;;;;;;18.70;100.00;95326.91;5105897;28;19956;-74
2023/09/21 08:48:22;;;;;;;;;;;;;;;18.83;100.00;95312.81;5106320;28;19955;-72
2023/09/21 08:50:51;;;;;;;;;;;;;;;18.83;100.00;95304.09;5105501;28;20097;-77
2023/09/21 08:53:18;;;;;;;;;;;;;;;18.91;100.00;95308.69;5105622;28;20149;-77
2023/09/21 08:55:48;;;;;;;;;;;;;;;19.15;100.00;95302.31;5087453;28;20079;-77
2023/09/21 08:58:21;;;;;;;;;;;;;;;19.37;100.00;95285.63;5105616;28;20257;-77
2023/09/21 09:00:47;;;;;;;;;;;;;;;19.44;100.00;95281.47;5105713;28;19956;-77
2023/09/21 09:03:14;;;;;;;;;;;;;;;19.51;100.00;95280.22;5105639;28;19958;-78
2023/09/21 09:05:41;;;;;;;;;;;;;;;19.53;100.00;95249.59;5105493;28;19994;-72
2023/09/21 09:08:06;;;;;;;;;;;;;;;19.56;100.00;95266.81;5105262;28;19943;-72
2023/09/21 09:10:39;;;;;;;;;;;;;;;19.63;100.00;95259.19;5087013;28;19957;-74
2023/09/21 09:13:08;;;;;;;;;;;;;;;19.71;100.00;95255.81;5105497;28;20266;-74
2023/09/21 09:15:34;;;;;;;;;;;;;;;19.83;100.00;95255.25;5105020;28;19966;-73
2023/09/21 09:18:03;;;;;;;;;;;;;;;19.98;100.00;95225.59;5105016;28;19955;-73
2023/09/21 09:20:29;;;;;;;;;;;;;;;20.13;100.00;95243.00;5105399;28;19959;-74
2023/09/21 09:22:56;;;;;;;;;;;;;;;20.22;100.00;95243.03;5104695;28;19949;-74
2023/09/21 09:25:22;;;;;;;;;;;;;;;20.28;100.00;95220.50;5105203;28;19960;-70
2023/09/21 09:27:47;;;;;;;;;;;;;;;20.28;100.00;95220.50;5105299;28;20272;-72
2023/09/21 09:30:13;;;;;;;;;;;;;;;20.33;100.00;95211.63;5105112;28;20434;-73
2023/09/21 09:32:42;;;;;;;;;;;;;;;20.34;98.25;95189.22;5104978;28;19949;-72
2023/09/21 09:35:13;;;;;;;;;;;;;;;20.34;100.00;95210.50;5104757;28;20816;-72
2023/09/21 09:37:48;;;;;;;;;;;;;;;20.32;100.00;95205.47;5105070;28;20256;-72
2023/09/21 09:40:18;;;;;;;;;;;;;;;20.31;100.00;95206.59;5105201;28;19945;-72
2023/09/21 09:42:44;;;;;;;;;;;;;;;20.32;100.00;95202.03;5104393;28;19958;-78
2023/09/21 09:45:16;;;;;;;;;;;;;;;20.35;100.00;95209.41;5086659;28;19972;-72
2023/09/21 09:47:47;;;;;;;;;;;;;;;20.36;100.00;95201.09;5086778;28;19956;-72
2023/09/21 09:50:17;;;;;;;;;;;;;;;20.39;100.00;95191.72;5086690;28;19957;-73
2023/09/21 09:52:49;;;;;;;;;;;;;;;20.41;100.00;95205.50;5104912;28;19954;-73
2023/09/21 09:55:15;;;;;;;;;;;;;;;20.47;100.00;95198.94;5104858;28;19945;-73
2023/09/21 09:57:45;;;;;;;;;;;;;;;20.53;100.00;95211.00;5104817;28;19954;-73
2023/09/21 10:00:21;;;;;;;;;;;;;;;20.62;100.00;95219.84;5105007;28;19962;-73
2023/09/21 10:02:47;;;;;;;;;;;;;;;20.70;100.00;95206.81;5086915;28;20136;-73
2023/09/21 10:05:14;;;;;;;;;;;;;;;20.80;100.00;95204.63;5104485;28;19954;-72
2023/09/21 10:07:40;;;;;;;;;;;;;;;20.98;100.00;95217.97;5104501;28;19958;-71
2023/09/21 10:10:08;;;;;;;;;;;;;;;21.09;96.34;95158.69;5104482;28;19950;-72
2023/09/21 10:12:34;;;;;;;;;;;;;;;21.22;100.00;95174.81;5104146;28;19955;-72
2023/09/21 10:15:03;;;;;;;;;;;;;;;21.31;99.21;95169.44;5104579;28;19958;-71
2023/09/21 10:17:29;;;;;;;;;;;;;;;21.40;98.09;95163.00;5104703;28;19972;-71
2023/09/21 10:20:14;;;;;;;;;;;;;;;21.51;98.06;95160.03;5104018;28;19946;-75
2023/09/21 10:22:43;;;;;;;;;;;;;;;21.64;97.94;95159.03;5104848;28;19949;-77
2023/09/21 10:25:13;;;;;;;;;;;;;;;21.75;95.95;95146.13;5104544;28;19953;-77
2023/09/21 10:27:39;;;;;;;;;;;;;;;21.86;94.77;95131.31;5104264;28;20135;-77
2023/09/21 10:30:15;;;;;;;;;;;;;;;22.00;94.14;95131.06;5104471;28;19954;-77
2023/09/21 10:32:42;;;;;;;;;;;;;;;22.12;93.36;95120.47;5104290;28;19958;-77
2023/09/21 10:35:11;;;;;;;;;;;;;;;22.19;92.94;95111.94;5104212;28;20236;-77
2023/09/21 10:37:37;;;;;;;;;;;;;;;22.19;90.82;95103.94;5104524;28;19955;-74
2023/09/21 10:40:08;;;;;;;;;;;;;;;22.24;92.23;95117.16;5104506;28;20257;-72
2023/09/21 10:42:36;;;;;;;;;;;;;;;22.25;90.37;95094.66;5104419;28;20220;-74
2023/09/21 10:45:04;;;;;;;;;;;;;;;22.27;93.23;95108.47;5103988;28;19952;-74
2023/09/21 10:47:38;;;;;;;;;;;;;;;22.33;89.20;95088.47;5104427;28;19947;-74
2023/09/21 10:50:11;;;;;;;;;;;;;;;22.35;91.23;95090.84;5104371;28;20231;-74
2023/09/21 10:52:39;;;;;;;;;;;;;;;22.34;90.59;95091.94;5103741;28;19952;-74
2023/09/21 10:55:05;;;;;;;;;;;;;;;22.33;91.46;95090.38;5105755;28;20250;-73
2023/09/21 10:57:32;;;;;;;;;;;;;;;22.32;88.11;95065.53;5108017;28;19950;-73
2023/09/21 11:00:01;;;;;;;;;;;;;;;22.26;88.40;95064.97;5107975;28;19950;-74
2023/09/21 11:02:31;;;;;;;;;;;;;;;22.31;91.37;95076.56;5107955;28;20124;-74
2023/09/21 11:04:58;;;;;;;;;;;;;;;22.34;84.49;95035.84;5107744;28;19966;-75
2023/09/21 11:07:24;;;;;;;;;;;;;;;22.43;90.14;95079.31;5107562;28;19941;-74
2023/09/21 11:09:50;;;;;;;;;;;;;;;22.54;90.75;95085.78;5107812;28;19954;-74
2023/09/21 11:12:18;;;;;;;;;;;;;;;22.62;90.24;95084.16;5089776;28;19961;-74
2023/09/21 11:14:44;;;;;;;;;;;;;;;22.72;86.26;95048.22;5089366;28;20288;-72
2023/09/21 11:17:11;;;;;;;;;;;;;;;22.82;88.96;95056.59;5089581;28;19954;-72
2023/09/21 11:19:40;;;;;;;;;;;;;;;22.89;88.24;95056.84;5107693;28;20135;-72
2023/09/21 11:22:07;;;;;;;;;;;;;;;22.97;91.24;95065.88;5088919;28;19952;-72
2023/09/21 11:24:35;;;;;;;;;;;;;;;23.05;88.82;95037.53;5107335;28;19954;-72
2023/09/21 11:27:06;;;;;;;;;;;;;;;23.20;89.61;95044.13;5064824;28;19961;-73
2023/09/21 11:29:33;;;;;;;;;;;;;;;23.40;83.47;95008.47;5064799;28;19949;-72
2023/09/21 11:32:00;;;;;;;;;;;;;;;23.70;83.28;95038.44;5048074;28;19963;-73
2023/09/21 11:34:26;;;;;;;;;;;;;;;23.99;81.06;95036.63;5065060;28;19971;-70
2023/09/21 11:36:52;;;;;;;;;;;;;;;24.22;80.62;95044.94;5065320;28;19954;-74
2023/09/21 11:39:22;;;;;;;;;;;;;;;24.39;73.14;95025.13;5047899;28;19962;-74
2023/09/21 11:41:51;;;;;;;;;;;;;;;24.50;71.58;95041.53;5065036;28;19960;-74
2023/09/21 11:44:17;;;;;;;;;;;;;;;24.62;76.02;95051.41;5064876;28;20162;-74
2023/09/21 11:46:44;;;;;;;;;;;;;;;24.73;74.39;95028.34;5064859;28;19957;-74
2023/09/21 11:49:10;;;;;;;;;;;;;;;24.79;71.83;95021.63;5064697;28;19956;-74
2023/09/21 11:51:36;;;;;;;;;;;;;;;24.75;75.25;95033.38;5047736;28;20271;-71
2023/09/21 11:54:04;;;;;;;;;;;;;;;24.66;73.43;95030.84;5064458;28;19978;-72
2023/09/21 11:56:30;;;;;;;;;;;;;;;24.57;73.74;95033.69;5064576;28;19962;-72
2023/09/21 11:58:59;;;;;;;;;;;;;;;24.46;75.88;95046.78;5100492;28;19951;-73
2023/09/21 12:01:27;;;;;;;;;;;;;;;24.39;76.05;95037.75;5106707;28;19953;-72
2023/09/21 12:03:56;;;;;;;;;;;;;;;24.34;71.64;95022.69;5106695;28;20111;-72
2023/09/21 12:06:27;;;;;;;;;;;;;;;24.23;74.57;95035.81;5105753;28;19979;-72
2023/09/21 12:08:53;;;;;;;;;;;;;;;24.19;72.92;95026.09;5106783;28;20133;-72
2023/09/21 12:11:21;;;;;;;;;;;;;;;24.14;73.89;95019.06;5106362;28;19961;-71
2023/09/21 12:13:46;;;;;;;;;;;;;;;24.15;74.37;95017.16;5106229;28;19961;-71
2023/09/21 12:16:12;;;;;;;;;;;;;;;24.19;74.83;95018.03;5106360;28;19997;-72
2023/09/21 12:18:38;;;;;;;;;;;;;;;24.23;76.04;95021.59;5106286;28;19959;-72
2023/09/21 12:21:04;;;;;;;;;;;;;;;24.29;75.58;95022.94;5088384;28;19949;-72
2023/09/21 12:23:31;;;;;;;;;;;;;;;24.39;75.94;95013.63;5106355;28;19959;-71
2023/09/21 12:25:57;;;;;;;;;;;;;;;24.66;74.22;94998.69;5087754;28;20031;-72
2023/09/21 12:28:23;;;;;;;;;;;;;;;24.93;71.07;94986.34;5088140;28;19941;-72
2023/09/21 12:30:51;;;;;;;;;;;;;;;24.97;76.07;94997.94;5106365;28;19956;-73
2023/09/21 12:33:17;;;;;;;;;;;;;;;24.99;76.36;94992.22;5087892;28;19959;-73
2023/09/21 12:35:43;;;;;;;;;;;;;;;24.98;72.91;94985.31;5105688;28;19961;-73
2023/09/21 12:38:12;;;;;;;;;;;;;;;24.92;70.97;94979.41;5105763;28;19960;-73